createdAt,value
2023-03-02T00:00:50.520Z,14.60
2023-03-02T00:03:22.835Z,14.73
2023-03-02T00:05:51.830Z,16.53
2023-03-02T00:08:22.553Z,15.17
2023-03-02T00:10:51.500Z,17.33
2023-03-02T00:13:21.399Z,15.77
2023-03-02T00:15:52.787Z,17.33
2023-03-02T00:18:24.403Z,12.87
2023-03-02T00:20:57.072Z,14.67
2023-03-02T00:23:29.630Z,14.00
2023-03-02T00:25:59.672Z,20.07
2023-03-02T00:28:30.056Z,16.97
2023-03-02T00:30:59.559Z,12.60
2023-03-02T00:33:30.273Z,12.43
2023-03-02T00:35:59.604Z,11.77
2023-03-02T00:38:28.915Z,14.13
2023-03-02T00:41:01.867Z,12.43
2023-03-02T00:43:30.464Z,13.90
2023-03-02T00:45:59.348Z,17.67
2023-03-02T00:48:29.896Z,20.23
2023-03-02T00:51:01.910Z,11.80
2023-03-02T00:53:30.372Z,11.70
2023-03-02T00:55:59.646Z,20.03
2023-03-02T00:58:29.088Z,17.50
2023-03-02T01:00:57.745Z,12.23
2023-03-02T01:03:26.313Z,12.73
2023-03-02T01:05:56.852Z,12.27
2023-03-02T01:08:26.392Z,10.93
2023-03-02T01:10:55.074Z,12.07
2023-03-02T01:13:23.656Z,11.80
2023-03-02T01:16:02.287Z,11.97
2023-03-02T01:18:31.148Z,10.33
2023-03-02T01:21:05.483Z,9.97
2023-03-02T01:23:34.073Z,10.43
2023-03-02T01:26:03.106Z,10.63
2023-03-02T01:28:31.561Z,10.57
2023-03-02T01:31:04.935Z,11.50
2023-03-02T01:33:34.817Z,12.67
2023-03-02T01:36:04.857Z,10.53
2023-03-02T01:38:33.522Z,16.50
2023-03-02T01:41:02.006Z,13.13
2023-03-02T01:43:30.956Z,11.17
2023-03-02T01:46:03.080Z,12.40
2023-03-02T01:48:35.486Z,11.67
2023-03-02T01:51:08.732Z,16.80
2023-03-02T01:53:38.971Z,17.90
2023-03-02T01:56:07.863Z,15.13
2023-03-02T01:58:38.510Z,11.93
2023-03-02T02:01:15.900Z,11.80
2023-03-02T02:03:48.244Z,16.20
2023-03-02T02:06:22.777Z,12.07
2023-03-02T02:08:52.361Z,12.10
2023-03-02T02:11:20.359Z,14.93
2023-03-02T02:13:48.482Z,10.93
2023-03-02T02:16:16.424Z,11.70
2023-03-02T02:18:45.534Z,11.57
2023-03-02T02:21:14.593Z,16.97
2023-03-02T02:23:50.966Z,13.70
2023-03-02T02:26:24.675Z,11.53
2023-03-02T02:28:58.874Z,10.80
2023-03-02T02:31:36.182Z,11.67
2023-03-02T02:34:10.780Z,12.90
2023-03-02T02:36:43.079Z,20.13
2023-03-02T02:39:18.973Z,10.93
2023-03-02T02:41:50.978Z,11.37
2023-03-02T02:44:20.212Z,13.30
2023-03-02T02:46:48.118Z,10.80
2023-03-02T02:49:28.847Z,16.10
2023-03-02T02:51:56.781Z,14.37
2023-03-02T02:54:25.320Z,11.93
2023-03-02T02:56:57.034Z,12.27
2023-03-02T02:59:28.966Z,12.00
2023-03-02T03:01:58.157Z,13.90
2023-03-02T03:04:29.289Z,11.13
2023-03-02T03:06:59.771Z,16.43
2023-03-02T03:09:28.307Z,12.93
2023-03-02T03:12:02.777Z,12.63
2023-03-02T03:14:35.188Z,11.73
2023-03-02T03:17:03.886Z,17.67
2023-03-02T03:19:33.396Z,17.30
2023-03-02T03:22:03.106Z,21.87
2023-03-02T03:24:33.840Z,15.13
2023-03-02T03:27:05.672Z,14.00
2023-03-02T03:29:34.723Z,15.17
2023-03-02T03:32:04.219Z,17.47
2023-03-02T03:34:32.898Z,14.57
2023-03-02T03:37:01.918Z,13.93
2023-03-02T03:39:30.453Z,11.73
2023-03-02T03:41:58.579Z,13.00
2023-03-02T03:44:27.817Z,14.13
2023-03-02T03:46:55.764Z,11.83
2023-03-02T03:49:23.803Z,13.63
2023-03-02T03:51:51.796Z,10.80
2023-03-02T03:54:20.170Z,16.87
2023-03-02T03:56:50.179Z,13.57
2023-03-02T03:59:49.427Z,13.53
2023-03-02T04:02:41.671Z,12.00
2023-03-02T04:12:27.341Z,11.53
2023-03-02T04:15:06.947Z,11.03
2023-03-02T04:18:07.860Z,12.97
2023-03-02T04:20:41.474Z,12.10
2023-03-02T04:23:09.382Z,11.63
2023-03-02T04:25:37.893Z,13.20
2023-03-02T04:28:06.420Z,52.63
2023-03-02T04:30:35.751Z,28.00
2023-03-02T04:33:04.225Z,17.70
2023-03-02T04:35:32.408Z,13.80
2023-03-02T04:38:00.346Z,11.37
2023-03-02T04:40:28.687Z,11.63
2023-03-02T04:42:57.080Z,12.77
2023-03-02T04:45:25.391Z,16.33
2023-03-02T04:47:54.926Z,14.57
2023-03-02T04:50:23.538Z,12.67
2023-03-02T04:52:51.790Z,10.83
2023-03-02T04:55:22.511Z,11.80
2023-03-02T04:57:50.827Z,15.10
2023-03-02T05:00:21.044Z,13.60
2023-03-02T05:02:49.322Z,13.07
2023-03-02T05:05:21.967Z,18.03
2023-03-02T05:07:51.674Z,19.37
2023-03-02T05:10:21.705Z,17.20
2023-03-02T05:13:03.652Z,18.77
2023-03-02T05:15:36.250Z,25.93
2023-03-02T05:18:06.826Z,14.10
2023-03-02T05:20:37.183Z,16.47
2023-03-02T05:23:08.636Z,13.17
2023-03-02T05:25:38.399Z,16.17
2023-03-02T05:28:07.195Z,19.70
2023-03-02T05:30:38.068Z,14.80
2023-03-02T05:33:06.666Z,12.73
2023-03-02T05:35:36.880Z,13.27
2023-03-02T05:38:05.250Z,13.30
2023-03-02T05:40:33.730Z,16.63
2023-03-02T05:43:02.398Z,12.83
2023-03-02T05:45:32.851Z,15.27
2023-03-02T05:48:01.048Z,13.83
2023-03-02T05:50:29.836Z,15.50
2023-03-02T05:53:00.253Z,13.83
2023-03-02T05:55:28.267Z,15.00
2023-03-02T05:57:56.662Z,15.07
2023-03-02T06:00:25.243Z,14.30
2023-03-02T06:02:53.225Z,16.57
2023-03-02T06:05:22.797Z,17.40
2023-03-02T06:07:50.786Z,15.00
2023-03-02T06:10:20.596Z,15.00
2023-03-02T06:12:48.599Z,21.67
2023-03-02T06:15:16.551Z,18.30
2023-03-02T06:17:44.689Z,15.60
2023-03-02T06:20:13.984Z,16.03
2023-03-02T06:22:45.183Z,21.03
2023-03-02T06:25:15.532Z,17.37
2023-03-02T06:27:45.564Z,21.87
2023-03-02T06:30:16.364Z,15.87
2023-03-02T06:32:44.502Z,21.57
2023-03-02T06:35:13.343Z,32.50
2023-03-02T06:37:44.081Z,23.10
2023-03-02T06:40:14.004Z,18.70
2023-03-02T06:42:44.236Z,24.03
2023-03-02T06:45:13.000Z,23.73
2023-03-02T06:47:43.632Z,18.60
2023-03-02T06:50:12.820Z,15.57
2023-03-02T06:52:40.737Z,22.10
2023-03-02T06:55:09.794Z,18.87
2023-03-02T06:57:38.269Z,27.17
2023-03-02T07:00:11.609Z,14.73
2023-03-02T07:02:39.574Z,19.93
2023-03-02T07:05:08.688Z,15.13
2023-03-02T07:07:36.979Z,19.73
2023-03-02T07:10:05.390Z,16.63
2023-03-02T07:12:33.508Z,22.20
2023-03-02T07:15:01.574Z,17.37
2023-03-02T07:17:31.115Z,24.60
2023-03-02T07:19:59.208Z,13.90
2023-03-02T07:22:27.134Z,22.63
2023-03-02T07:24:55.458Z,21.13
2023-03-02T07:27:23.521Z,15.23
2023-03-02T07:29:51.800Z,15.47
2023-03-02T07:32:20.006Z,20.17
2023-03-02T07:34:49.437Z,19.90
2023-03-02T07:37:17.353Z,27.20
2023-03-02T07:39:45.398Z,17.40
2023-03-02T07:42:14.131Z,22.47
2023-03-02T07:44:42.380Z,22.63
2023-03-02T07:47:10.314Z,22.20
2023-03-02T07:49:38.516Z,14.93
2023-03-02T07:52:07.902Z,15.87
2023-03-02T07:54:35.820Z,14.30
2023-03-02T07:57:03.930Z,14.93
2023-03-02T07:59:45.103Z,15.60
2023-03-02T08:08:37.495Z,15.83
2023-03-02T08:11:58.496Z,16.90
2023-03-02T08:23:19.286Z,67.30
2023-03-02T08:26:05.504Z,18.00
2023-03-02T08:29:07.567Z,17.23
2023-03-02T08:34:54.914Z,15.90
2023-03-02T08:41:22.810Z,17.83
2023-03-02T08:44:36.196Z,18.25
2023-03-02T08:47:07.727Z,18.90
2023-03-02T08:49:47.979Z,15.73
2023-03-02T08:52:16.404Z,15.07
2023-03-02T08:54:45.113Z,27.90
2023-03-02T08:57:14.720Z,20.87
2023-03-02T08:59:42.711Z,20.77
2023-03-02T09:02:12.484Z,16.93
2023-03-02T09:04:42.039Z,17.37
2023-03-02T09:07:09.884Z,19.43
2023-03-02T09:09:39.271Z,15.83
2023-03-02T09:12:07.547Z,15.17
2023-03-02T09:14:37.169Z,15.13
2023-03-02T09:17:05.817Z,14.33
2023-03-02T09:19:43.266Z,17.00
2023-03-02T09:22:12.930Z,14.53
2023-03-02T09:24:40.893Z,14.30
2023-03-02T09:27:08.791Z,13.53
2023-03-02T09:29:38.472Z,14.63
2023-03-02T09:32:06.707Z,13.33
2023-03-02T09:34:34.767Z,15.30
2023-03-02T09:37:03.530Z,14.77
2023-03-02T09:39:31.682Z,16.70
2023-03-02T09:42:32.096Z,13.57
2023-03-02T09:45:24.723Z,12.80
2023-03-02T09:48:06.483Z,13.70
2023-03-02T09:50:37.749Z,11.70
2023-03-02T09:53:26.382Z,16.50
2023-03-02T09:56:00.516Z,16.03
2023-03-02T09:58:43.847Z,15.40
2023-03-02T10:01:17.202Z,14.13
2023-03-02T10:03:52.735Z,15.17
2023-03-02T10:06:24.799Z,14.37
2023-03-02T10:08:52.779Z,14.97
2023-03-02T10:11:32.500Z,15.10
2023-03-02T10:14:04.818Z,14.90
2023-03-02T10:16:38.561Z,12.90
2023-03-02T10:19:15.082Z,15.37
2023-03-02T10:21:45.477Z,13.37
2023-03-02T10:24:22.503Z,14.03
2023-03-02T10:26:54.226Z,15.10
2023-03-02T10:29:47.961Z,13.87
2023-03-02T10:32:22.432Z,12.03
2023-03-02T10:34:51.776Z,16.17
2023-03-02T10:37:23.052Z,13.23
2023-03-02T10:39:51.275Z,15.00
2023-03-02T10:42:23.281Z,16.23
2023-03-02T10:44:54.906Z,14.73
2023-03-02T10:47:26.622Z,16.73
2023-03-02T10:49:55.848Z,14.53
2023-03-02T10:52:25.718Z,16.20
2023-03-02T10:55:03.723Z,14.50
2023-03-02T10:57:36.922Z,15.73
2023-03-02T11:00:16.484Z,14.40
2023-03-02T11:02:56.717Z,15.60
2023-03-02T11:05:29.929Z,19.27
2023-03-02T11:07:59.886Z,14.20
2023-03-02T11:10:32.011Z,14.10
2023-03-02T11:13:01.352Z,13.70
2023-03-02T11:15:37.083Z,16.43
2023-03-02T11:18:13.836Z,15.17
2023-03-02T11:20:46.401Z,13.60
2023-03-02T11:23:24.707Z,15.00
2023-03-02T11:25:55.559Z,17.03
2023-03-02T11:28:35.472Z,15.13
2023-03-02T11:31:09.139Z,12.93
2023-03-02T11:33:46.560Z,15.50
2023-03-02T11:36:21.557Z,13.67
2023-03-02T11:38:52.481Z,12.80
2023-03-02T11:41:29.924Z,12.13
2023-03-02T11:44:01.387Z,13.17
2023-03-02T11:46:31.948Z,12.27
2023-03-02T11:49:06.679Z,12.83
2023-03-02T11:51:39.093Z,12.73
2023-03-02T11:54:21.116Z,14.00
2023-03-02T11:56:49.376Z,12.40
2023-03-02T11:59:21.304Z,13.93
2023-03-02T12:01:52.625Z,14.13
2023-03-02T12:04:32.445Z,14.77
2023-03-02T12:07:02.091Z,14.77
2023-03-02T12:09:35.058Z,15.60
2023-03-02T12:12:28.046Z,21.50
2023-03-02T12:15:06.136Z,16.67
2023-03-02T12:17:35.530Z,15.47
2023-03-02T12:20:26.366Z,18.70
2023-03-02T12:23:57.108Z,15.73
2023-03-02T12:26:30.937Z,16.07
2023-03-02T12:29:03.115Z,15.70
2023-03-02T12:31:44.298Z,15.00
2023-03-02T12:34:34.835Z,18.17
2023-03-02T12:37:09.302Z,16.13
2023-03-02T12:40:27.637Z,17.90
2023-03-02T12:43:16.066Z,15.43
2023-03-02T12:45:59.694Z,17.27
2023-03-02T12:48:31.804Z,16.50
2023-03-02T12:51:09.537Z,14.73
2023-03-02T12:53:42.675Z,15.13
2023-03-02T12:56:10.984Z,14.30
2023-03-02T12:58:38.859Z,13.43
2023-03-02T13:01:06.907Z,12.83
2023-03-02T13:03:35.008Z,13.60
2023-03-02T13:06:05.243Z,13.27
2023-03-02T13:08:33.922Z,13.07
2023-03-02T13:11:04.226Z,14.73
2023-03-02T13:13:38.674Z,12.90
2023-03-02T13:16:19.278Z,13.60
2023-03-02T13:18:49.925Z,13.23
2023-03-02T13:21:20.273Z,13.47
2023-03-02T13:23:51.923Z,13.70
2023-03-02T13:26:30.063Z,13.37
2023-03-02T13:29:06.883Z,12.73
2023-03-02T13:31:44.597Z,12.63
2023-03-02T13:34:23.499Z,12.40
2023-03-02T13:36:52.307Z,9.37
2023-03-02T13:39:27.762Z,10.93
2023-03-02T13:42:01.314Z,12.47
2023-03-02T13:44:31.799Z,9.30
2023-03-02T13:47:00.312Z,11.27
2023-03-02T13:49:30.462Z,9.43
2023-03-02T13:55:36.483Z,10.80
2023-03-02T13:58:05.874Z,8.90
2023-03-02T14:00:36.570Z,8.93
2023-03-02T14:03:04.341Z,9.50
2023-03-02T14:05:33.915Z,13.03
2023-03-02T14:08:03.023Z,9.50
2023-03-02T14:10:31.050Z,10.03
2023-03-02T14:13:04.367Z,9.30
2023-03-02T14:15:33.768Z,9.83
2023-03-02T14:18:02.356Z,8.03
2023-03-02T14:20:30.338Z,8.17
2023-03-02T14:22:58.685Z,8.60
2023-03-02T14:25:26.787Z,8.77
2023-03-02T14:27:54.931Z,9.63
2023-03-02T14:30:22.866Z,10.53
2023-03-02T14:32:52.217Z,8.60
2023-03-02T14:35:20.162Z,9.67
2023-03-02T14:37:50.369Z,9.00
2023-03-02T14:40:22.495Z,7.50
2023-03-02T14:42:51.874Z,9.17
2023-03-02T14:45:20.138Z,8.20
2023-03-02T14:47:49.108Z,9.27
2023-03-02T14:50:21.009Z,8.50
2023-03-02T14:52:52.073Z,7.80
2023-03-02T14:55:25.761Z,7.63
2023-03-02T14:57:57.108Z,7.77
2023-03-02T15:00:26.485Z,8.00
2023-03-02T15:02:54.741Z,8.00
2023-03-02T15:05:24.258Z,10.07
2023-03-02T15:07:53.639Z,9.23
2023-03-02T15:10:23.333Z,7.43
2023-03-02T15:12:51.449Z,8.73
2023-03-02T15:15:19.965Z,9.30
2023-03-02T15:17:47.828Z,11.20
2023-03-02T15:20:17.575Z,10.37
2023-03-02T15:22:46.769Z,9.93
2023-03-02T15:25:14.493Z,10.57
2023-03-02T15:27:42.768Z,11.40
2023-03-02T15:30:12.370Z,10.63
2023-03-02T15:32:40.237Z,10.80
2023-03-02T15:35:09.219Z,10.13
2023-03-02T15:37:37.023Z,9.33
2023-03-02T15:40:07.723Z,10.07
2023-03-02T15:42:35.552Z,12.17
2023-03-02T15:45:03.454Z,13.37
2023-03-02T15:47:36.336Z,10.47
2023-03-02T15:50:04.925Z,11.57
2023-03-02T15:52:32.896Z,10.63
2023-03-02T15:55:00.713Z,10.47
2023-03-02T15:57:30.271Z,10.97
2023-03-02T15:59:58.196Z,12.30
2023-03-02T16:02:26.103Z,10.67
2023-03-02T16:04:54.228Z,10.20
2023-03-02T16:07:22.162Z,10.23
2023-03-02T16:09:50.022Z,10.30
2023-03-02T16:12:20.408Z,10.13
2023-03-02T16:14:49.565Z,9.20
2023-03-02T16:17:19.140Z,11.00
2023-03-02T16:19:47.145Z,10.50
2023-03-02T16:22:15.182Z,9.73
2023-03-02T16:24:43.166Z,8.73
2023-03-02T16:27:12.231Z,9.97
2023-03-02T16:29:40.346Z,10.77
2023-03-02T16:32:09.917Z,10.90
2023-03-02T16:34:38.286Z,11.07
2023-03-02T16:37:06.212Z,10.80
2023-03-02T16:39:34.274Z,9.43
2023-03-02T16:42:02.434Z,9.20
2023-03-02T16:44:30.619Z,9.73
2023-03-02T16:46:58.697Z,9.20
2023-03-02T16:49:27.974Z,9.87
2023-03-02T16:51:58.920Z,11.13
2023-03-02T16:54:27.178Z,11.27
2023-03-02T16:56:55.510Z,12.03
2023-03-02T16:59:23.920Z,35.83
2023-03-02T17:01:57.025Z,13.93
2023-03-02T17:04:25.088Z,14.63
2023-03-02T17:07:02.263Z,13.10
2023-03-02T17:09:30.562Z,12.77
2023-03-02T17:11:58.829Z,13.37
2023-03-02T17:14:27.113Z,17.37
2023-03-02T17:16:57.508Z,12.30
2023-03-02T17:19:27.331Z,16.40
2023-03-02T17:21:58.740Z,14.33
2023-03-02T17:24:27.413Z,12.13
2023-03-02T17:26:55.693Z,13.03
2023-03-02T17:29:24.327Z,14.07
2023-03-02T17:31:52.469Z,13.63
2023-03-02T17:34:20.718Z,13.13
2023-03-02T17:36:49.159Z,16.90
2023-03-02T17:39:18.597Z,16.23
2023-03-02T17:41:46.537Z,21.47
2023-03-02T17:44:17.223Z,17.50
2023-03-02T17:46:46.571Z,17.83
2023-03-02T17:55:22.481Z,20.70
2023-03-02T17:57:52.369Z,16.60
2023-03-02T18:00:22.565Z,16.90
2023-03-02T18:02:51.337Z,16.77
2023-03-02T18:05:19.493Z,15.20
2023-03-02T18:07:48.163Z,19.17
2023-03-02T18:10:16.561Z,16.97
2023-03-02T18:12:46.761Z,16.53
2023-03-02T18:15:16.324Z,16.67
2023-03-02T18:17:44.429Z,17.50
2023-03-02T18:20:14.065Z,15.20
2023-03-02T18:22:42.148Z,15.47
2023-03-02T18:25:15.141Z,16.50
2023-03-02T18:27:43.675Z,16.30
2023-03-02T18:30:13.577Z,16.70
2023-03-02T18:32:43.372Z,16.47
2023-03-02T18:35:12.242Z,15.57
2023-03-02T18:37:47.054Z,17.93
2023-03-02T18:40:22.053Z,15.93
2023-03-02T18:42:51.292Z,15.50
2023-03-02T18:45:28.052Z,18.00
2023-03-02T18:47:59.671Z,16.63
2023-03-02T18:50:28.924Z,15.90
2023-03-02T18:52:57.491Z,15.80
2023-03-02T18:55:26.706Z,14.93
2023-03-02T18:57:58.164Z,16.20
2023-03-02T19:00:29.310Z,15.27
2023-03-02T19:02:59.617Z,19.10
2023-03-02T19:05:29.794Z,19.17
2023-03-02T19:08:00.374Z,17.03
2023-03-02T19:10:28.260Z,16.07
2023-03-02T19:12:56.118Z,15.73
2023-03-02T19:15:25.117Z,15.47
2023-03-02T19:17:54.720Z,14.83
2023-03-02T19:20:27.213Z,17.33
2023-03-02T19:22:55.737Z,15.07
2023-03-02T19:25:24.473Z,15.17
2023-03-02T19:27:52.792Z,16.60
2023-03-02T19:30:24.006Z,17.93
2023-03-02T19:32:54.269Z,15.00
2023-03-02T19:35:25.654Z,16.87
2023-03-02T19:37:58.295Z,15.73
2023-03-02T19:40:29.477Z,18.27
2023-03-02T19:42:58.381Z,17.63
2023-03-02T19:45:29.113Z,16.40
2023-03-02T19:47:57.964Z,21.17
2023-03-02T19:50:28.777Z,18.83
2023-03-02T19:52:56.987Z,19.63
2023-03-02T19:55:25.698Z,19.97
2023-03-02T19:58:00.090Z,19.13
2023-03-02T20:00:31.763Z,19.60
2023-03-02T20:03:00.926Z,18.20
2023-03-02T20:05:30.641Z,20.10
2023-03-02T20:07:58.974Z,17.73
2023-03-02T20:10:33.028Z,17.90
2023-03-02T20:13:01.872Z,18.97
2023-03-02T20:15:31.990Z,18.60
2023-03-02T20:18:02.604Z,19.63
2023-03-02T20:20:33.151Z,20.27
2023-03-02T20:23:01.197Z,20.83
2023-03-02T20:25:32.636Z,19.47
2023-03-02T20:28:01.108Z,20.23
2023-03-02T20:30:32.686Z,19.90
2023-03-02T20:33:01.187Z,20.93
2023-03-02T20:35:33.425Z,19.90
2023-03-02T20:38:05.421Z,21.67
2023-03-02T20:40:35.487Z,21.37
2023-03-02T20:43:03.612Z,19.33
2023-03-02T20:45:31.740Z,21.60
2023-03-02T20:48:00.126Z,19.97
2023-03-02T20:50:31.937Z,19.73
2023-03-02T20:53:02.042Z,19.70
2023-03-02T20:55:30.548Z,19.40
2023-03-02T20:58:00.038Z,20.83
2023-03-02T21:00:49.020Z,19.10
2023-03-02T21:03:26.614Z,21.40
2023-03-02T21:05:56.508Z,22.07
2023-03-02T21:08:26.108Z,19.03
2023-03-02T21:10:54.077Z,22.27
2023-03-02T21:13:25.348Z,20.77
2023-03-02T21:15:53.453Z,23.33
2023-03-02T21:18:21.995Z,24.80
2023-03-02T21:20:49.921Z,21.93
2023-03-02T21:23:29.174Z,23.13
2023-03-02T21:25:57.397Z,24.67
2023-03-02T21:28:25.426Z,22.13
2023-03-02T21:30:53.588Z,21.27
2023-03-02T21:33:21.601Z,22.60
2023-03-02T21:35:49.470Z,24.40
2023-03-02T21:38:17.209Z,23.70
2023-03-02T21:40:46.883Z,24.17
2023-03-02T21:43:17.410Z,25.40
2023-03-02T21:45:45.594Z,23.93
2023-03-02T21:48:15.029Z,25.43
2023-03-02T21:50:45.791Z,24.40
2023-03-02T21:53:13.765Z,26.67
2023-03-02T21:55:42.506Z,22.90
2023-03-02T21:58:12.393Z,27.27
2023-03-02T22:00:41.658Z,24.80
2023-03-02T22:03:09.977Z,25.50
2023-03-02T22:05:39.212Z,27.30
2023-03-02T22:08:07.701Z,24.97
2023-03-02T22:10:41.224Z,26.77
2023-03-02T22:13:20.512Z,28.20
2023-03-02T22:15:49.919Z,30.07
2023-03-02T22:18:20.718Z,30.13
2023-03-02T22:20:51.527Z,29.27
2023-03-02T22:23:21.862Z,31.03
2023-03-02T22:25:52.263Z,31.87
2023-03-02T22:28:23.506Z,31.80
2023-03-02T22:30:52.619Z,29.70
2023-03-02T22:33:23.086Z,30.23
2023-03-02T22:35:53.747Z,32.40
2023-03-02T22:38:25.841Z,31.63
2023-03-02T22:40:55.120Z,31.37
2023-03-02T22:43:27.102Z,34.67
2023-03-02T22:46:00.169Z,34.23
2023-03-02T22:48:29.405Z,37.23
2023-03-02T22:50:57.238Z,35.80
2023-03-02T22:53:28.770Z,34.70
2023-03-02T22:55:58.823Z,34.60
2023-03-02T22:58:44.315Z,35.13
2023-03-02T23:01:21.493Z,35.87
2023-03-02T23:03:51.711Z,33.13
2023-03-02T23:06:29.010Z,35.17
2023-03-02T23:09:01.345Z,34.80
2023-03-02T23:11:32.768Z,38.27
2023-03-02T23:14:03.579Z,34.23
2023-03-02T23:16:37.086Z,36.77
2023-03-02T23:19:06.080Z,39.53
2023-03-02T23:21:39.166Z,40.13
2023-03-02T23:24:08.549Z,37.70
2023-03-02T23:26:37.238Z,38.43
2023-03-02T23:29:07.005Z,37.43
2023-03-02T23:31:35.239Z,34.27
2023-03-02T23:34:03.517Z,33.33
2023-03-02T23:36:32.379Z,34.43
2023-03-02T23:39:00.626Z,33.23
2023-03-02T23:41:28.864Z,34.07
2023-03-02T23:43:56.880Z,35.00
2023-03-02T23:46:26.583Z,34.53
2023-03-02T23:48:56.146Z,31.80
2023-03-02T23:51:25.449Z,34.37
2023-03-02T23:53:53.806Z,34.43
2023-03-02T23:56:21.969Z,32.40
2023-03-02T23:58:49.974Z,33.30
